Aviation Digital Data Service (ADDS)

Output produced by METARs form (0451 UTC 28 July 2016)
found at http://aviationweather.gov/adds/metars/
 
KFAY 272329Z 2800/2824 21010KT P6SM SCT060 
     FM280300 VRB03KT P6SM SCT250